createdAt,value
2018-03-29T00:02:24.050Z,4.30
2018-03-29T00:04:51.488Z,4.30
2018-03-29T00:07:19.730Z,4.30
2018-03-29T00:09:47.210Z,4.20
2018-03-29T00:12:14.671Z,4.30
2018-03-29T00:14:42.134Z,4.30
2018-03-29T00:17:09.607Z,4.30
2018-03-29T00:19:37.057Z,4.30
2018-03-29T00:22:04.513Z,4.30
2018-03-29T00:24:31.986Z,4.40
2018-03-29T00:26:59.459Z,4.40
2018-03-29T00:29:26.904Z,4.40
2018-03-29T00:31:55.173Z,4.30
2018-03-29T00:34:22.624Z,4.30
2018-03-29T00:36:50.109Z,4.30
2018-03-29T00:39:17.561Z,4.30
2018-03-29T00:41:45.114Z,4.30
2018-03-29T00:44:12.578Z,4.30
2018-03-29T00:46:40.035Z,4.30
2018-03-29T00:49:07.497Z,4.30
2018-03-29T00:51:35.515Z,4.30
2018-03-29T00:54:02.984Z,4.30
2018-03-29T00:56:30.442Z,4.30
2018-03-29T00:58:57.912Z,4.30
2018-03-29T01:01:25.388Z,4.30
2018-03-29T01:03:52.849Z,4.30
2018-03-29T01:06:20.469Z,4.30
2018-03-29T01:08:47.951Z,4.30
2018-03-29T01:11:15.425Z,4.30
2018-03-29T01:13:43.650Z,4.20
2018-03-29T01:16:11.120Z,4.20
2018-03-29T01:18:38.588Z,4.20
2018-03-29T01:21:06.043Z,4.30
2018-03-29T01:23:33.554Z,4.30
2018-03-29T01:26:01.029Z,4.30
2018-03-29T01:28:28.504Z,4.30
2018-03-29T01:30:55.961Z,4.30
2018-03-29T01:33:23.442Z,4.30
2018-03-29T01:35:50.923Z,4.30
2018-03-29T01:38:18.370Z,4.30
2018-03-29T01:40:45.846Z,4.30
2018-03-29T01:43:13.314Z,4.20
2018-03-29T01:45:40.784Z,4.20
2018-03-29T01:48:08.266Z,4.20
2018-03-29T01:50:35.734Z,4.20
2018-03-29T01:53:03.212Z,4.20
2018-03-29T01:55:31.458Z,4.20
2018-03-29T01:57:58.912Z,4.20
2018-03-29T02:00:26.382Z,4.20
2018-03-29T02:02:53.850Z,4.20
2018-03-29T02:05:21.345Z,4.20
2018-03-29T02:07:48.865Z,4.30
2018-03-29T02:10:16.260Z,4.30
2018-03-29T02:12:43.735Z,4.30
2018-03-29T02:15:11.388Z,4.30
2018-03-29T02:17:39.620Z,4.30
2018-03-29T02:20:07.445Z,4.30
2018-03-29T02:22:35.773Z,4.30
2018-03-29T02:25:03.244Z,4.30
2018-03-29T02:27:30.717Z,4.30
2018-03-29T02:29:58.194Z,4.30
2018-03-29T02:32:25.655Z,4.30
2018-03-29T02:34:53.873Z,4.40
2018-03-29T02:37:21.345Z,4.30
2018-03-29T02:39:48.822Z,4.40
2018-03-29T02:42:16.290Z,4.30
2018-03-29T02:44:43.741Z,4.30
2018-03-29T02:47:11.219Z,4.30
2018-03-29T02:49:38.679Z,4.40
2018-03-29T02:52:06.172Z,4.30
2018-03-29T02:54:33.619Z,4.40
2018-03-29T02:57:01.086Z,4.30
2018-03-29T02:59:28.544Z,4.30
2018-03-29T03:01:56.017Z,4.30
2018-03-29T03:04:23.482Z,4.30
2018-03-29T03:06:50.965Z,4.30
2018-03-29T03:09:18.455Z,4.30
2018-03-29T03:11:45.901Z,4.30
2018-03-29T03:14:13.359Z,4.20
2018-03-29T03:16:40.857Z,4.20
2018-03-29T03:19:08.305Z,4.20
2018-03-29T03:21:35.772Z,4.20
2018-03-29T03:24:03.234Z,4.20
2018-03-29T03:26:30.710Z,4.20
2018-03-29T03:28:58.192Z,4.20
2018-03-29T03:31:25.663Z,4.10
2018-03-29T03:33:53.116Z,4.10
2018-03-29T03:36:20.585Z,4.10
2018-03-29T03:38:48.067Z,4.10
2018-03-29T03:41:15.512Z,4.00
2018-03-29T03:43:43.021Z,4.00
2018-03-29T03:46:10.476Z,4.10
2018-03-29T03:48:37.927Z,4.10
2018-03-29T03:51:05.392Z,4.10
2018-03-29T03:53:33.608Z,4.20
2018-03-29T03:56:01.088Z,4.20
2018-03-29T03:58:28.567Z,4.20
2018-03-29T04:00:56.034Z,4.30
2018-03-29T04:03:23.490Z,4.30
2018-03-29T04:05:50.964Z,4.30
2018-03-29T04:08:18.427Z,4.30
2018-03-29T04:10:45.879Z,4.30
2018-03-29T04:13:13.359Z,4.40
2018-03-29T04:15:40.903Z,4.30
2018-03-29T04:18:08.380Z,4.40
2018-03-29T04:20:35.837Z,4.40
2018-03-29T04:23:03.328Z,4.40
2018-03-29T04:25:30.776Z,4.40
2018-03-29T04:27:58.252Z,4.40
2018-03-29T04:30:25.704Z,4.30
2018-03-29T04:32:53.180Z,4.30
2018-03-29T04:35:20.661Z,4.20
2018-03-29T04:37:48.935Z,4.20
2018-03-29T04:40:16.504Z,4.20
2018-03-29T04:42:44.725Z,4.30
2018-03-29T04:45:12.196Z,4.30
2018-03-29T04:47:39.648Z,4.30
2018-03-29T04:50:07.113Z,4.30
2018-03-29T04:52:34.604Z,4.30
2018-03-29T04:55:02.062Z,4.30
2018-03-29T04:57:29.534Z,4.30
2018-03-29T04:59:57.022Z,4.30
2018-03-29T05:02:24.476Z,4.30
2018-03-29T05:04:51.935Z,4.30
2018-03-29T05:07:19.466Z,4.30
2018-03-29T05:09:46.919Z,4.30
2018-03-29T05:12:14.381Z,4.30
2018-03-29T05:14:41.860Z,4.40
2018-03-29T05:17:09.340Z,4.40
2018-03-29T05:19:36.812Z,4.40
2018-03-29T05:22:04.281Z,4.40
2018-03-29T05:24:31.746Z,4.40
2018-03-29T05:26:59.274Z,4.40
2018-03-29T05:29:26.859Z,4.50
2018-03-29T05:31:54.407Z,4.50
2018-03-29T05:34:22.640Z,4.50
2018-03-29T05:36:50.113Z,4.50
2018-03-29T05:39:17.557Z,4.50
2018-03-29T05:41:45.115Z,4.50
2018-03-29T05:44:13.343Z,4.60
2018-03-29T05:46:40.820Z,4.60
2018-03-29T05:49:08.283Z,4.60
2018-03-29T05:51:35.753Z,4.60
2018-03-29T05:54:03.244Z,4.60
2018-03-29T05:56:30.693Z,4.70
2018-03-29T05:58:58.191Z,4.70
2018-03-29T06:01:25.657Z,4.70
2018-03-29T06:03:53.142Z,4.80
2018-03-29T06:06:21.362Z,4.80
2018-03-29T06:08:48.829Z,4.80
2018-03-29T06:11:16.271Z,4.80
2018-03-29T06:13:44.522Z,4.90
2018-03-29T06:16:11.977Z,4.90
2018-03-29T06:18:39.438Z,5.00
2018-03-29T06:21:06.903Z,5.10
2018-03-29T06:23:34.361Z,5.10
2018-03-29T06:26:01.855Z,5.10
2018-03-29T06:28:29.342Z,5.10
2018-03-29T06:30:56.797Z,5.20
2018-03-29T06:33:24.272Z,5.20
2018-03-29T06:35:51.739Z,5.20
2018-03-29T06:38:19.209Z,5.20
2018-03-29T06:40:46.701Z,5.20
2018-03-29T06:43:14.159Z,5.30
2018-03-29T06:45:41.630Z,5.30
2018-03-29T06:48:09.069Z,5.40
2018-03-29T06:50:36.538Z,5.50
2018-03-29T06:53:04.014Z,5.50
2018-03-29T06:55:31.465Z,5.50
2018-03-29T06:57:58.933Z,5.50
2018-03-29T07:00:26.387Z,5.60
2018-03-29T07:02:53.869Z,5.60
2018-03-29T07:05:21.329Z,5.60
2018-03-29T07:07:48.778Z,5.60
2018-03-29T07:10:17.030Z,5.70
2018-03-29T07:12:44.480Z,5.70
2018-03-29T07:15:11.960Z,5.80
2018-03-29T07:17:39.433Z,5.90
2018-03-29T07:20:06.872Z,6.00
2018-03-29T07:22:34.345Z,6.00
2018-03-29T07:25:01.793Z,6.10
2018-03-29T07:27:30.030Z,6.00
2018-03-29T07:29:57.476Z,6.00
2018-03-29T07:32:24.984Z,6.00
2018-03-29T07:34:52.434Z,6.00
2018-03-29T07:37:19.900Z,5.90
2018-03-29T07:39:47.350Z,5.90
2018-03-29T07:42:14.825Z,6.00
2018-03-29T07:44:42.295Z,6.00
2018-03-29T07:47:09.833Z,6.10
2018-03-29T07:49:37.244Z,6.10
2018-03-29T07:52:04.688Z,6.20
2018-03-29T07:57:15.391Z,6.30
2018-03-29T07:59:42.873Z,6.40
2018-03-29T08:02:10.351Z,6.50
2018-03-29T08:04:37.810Z,6.50
2018-03-29T08:07:05.283Z,6.50
2018-03-29T08:09:32.762Z,6.40
2018-03-29T08:12:00.221Z,6.40
2018-03-29T08:14:27.697Z,6.40
2018-03-29T08:16:55.177Z,6.40
2018-03-29T08:19:22.632Z,6.40
2018-03-29T08:21:50.114Z,6.40
2018-03-29T08:24:17.576Z,6.50
2018-03-29T08:26:45.030Z,6.50
2018-03-29T08:29:13.268Z,6.40
2018-03-29T08:31:40.742Z,6.40
2018-03-29T08:34:08.210Z,6.30
2018-03-29T08:36:35.660Z,6.40
2018-03-29T08:39:03.132Z,6.40
2018-03-29T08:41:30.584Z,6.50
2018-03-29T08:43:58.043Z,6.60
2018-03-29T08:46:25.496Z,6.60
2018-03-29T08:48:53.757Z,6.60
2018-03-29T08:51:21.228Z,6.60
2018-03-29T08:53:48.704Z,6.60
2018-03-29T08:56:16.158Z,6.50
2018-03-29T08:58:43.630Z,6.50
2018-03-29T09:01:11.076Z,6.60
2018-03-29T09:03:39.490Z,6.60
2018-03-29T09:06:06.944Z,6.50
2018-03-29T09:08:34.385Z,6.50
2018-03-29T09:11:01.886Z,6.50
2018-03-29T09:13:29.332Z,6.70
2018-03-29T09:15:56.805Z,6.80
2018-03-29T09:18:24.253Z,6.90
2018-03-29T09:20:51.718Z,7.00
2018-03-29T09:23:19.952Z,7.30
2018-03-29T09:25:47.405Z,7.30
2018-03-29T09:28:14.892Z,7.40
2018-03-29T09:30:42.353Z,7.50
2018-03-29T09:33:09.803Z,7.60
2018-03-29T09:35:37.357Z,7.70
2018-03-29T09:38:04.752Z,7.90
2018-03-29T09:40:32.237Z,8.00
2018-03-29T09:42:59.693Z,8.10
2018-03-29T09:45:27.239Z,8.20
2018-03-29T09:47:54.691Z,8.20
2018-03-29T09:50:22.928Z,8.40
2018-03-29T09:52:50.399Z,8.30
2018-03-29T09:55:17.869Z,8.50
2018-03-29T09:57:45.322Z,8.60
2018-03-29T10:00:12.769Z,8.70
2018-03-29T10:02:45.852Z,8.80
2018-03-29T10:05:14.070Z,9.00
2018-03-29T10:07:41.565Z,9.10
2018-03-29T10:10:09.013Z,9.10
2018-03-29T10:12:36.456Z,9.00
2018-03-29T10:15:04.697Z,9.30
2018-03-29T10:17:32.185Z,9.30
2018-03-29T10:19:59.654Z,9.30
2018-03-29T10:22:27.126Z,9.20
2018-03-29T10:24:54.596Z,9.10
2018-03-29T10:27:22.059Z,9.00
2018-03-29T10:29:49.551Z,9.00
2018-03-29T10:32:17.768Z,9.30
2018-03-29T10:34:45.225Z,9.20
2018-03-29T10:37:12.762Z,9.30
2018-03-29T10:39:40.215Z,9.30
2018-03-29T10:42:07.668Z,9.40
2018-03-29T10:44:35.165Z,9.60
2018-03-29T10:47:02.612Z,9.70
2018-03-29T10:49:30.080Z,9.60
2018-03-29T10:51:57.549Z,9.50
2018-03-29T10:54:25.006Z,9.40
2018-03-29T10:56:52.465Z,9.40
2018-03-29T10:59:20.863Z,9.30
2018-03-29T11:01:48.377Z,9.20
2018-03-29T11:04:15.884Z,9.20
2018-03-29T11:06:43.329Z,9.20
2018-03-29T11:09:10.792Z,9.10
2018-03-29T11:11:38.287Z,9.00
2018-03-29T11:14:06.550Z,9.00
2018-03-29T11:16:34.009Z,9.00
2018-03-29T11:19:01.477Z,9.10
2018-03-29T11:21:28.957Z,9.40
2018-03-29T11:23:56.424Z,9.50
2018-03-29T20:34:06.273Z,10.10
2018-03-29T20:36:33.720Z,4.30
2018-03-29T20:39:01.211Z,4.30
2018-03-29T20:41:30.452Z,4.20
2018-03-29T20:43:57.955Z,4.20
2018-03-29T20:46:25.404Z,4.10
2018-03-29T20:48:53.637Z,4.00
2018-03-29T20:51:21.108Z,4.00
2018-03-29T20:53:48.656Z,4.00
2018-03-29T20:56:16.250Z,4.00
2018-03-29T20:58:43.834Z,4.00
2018-03-29T21:01:11.385Z,4.00
2018-03-29T21:03:39.043Z,4.20
2018-03-29T21:06:07.326Z,4.20
2018-03-29T21:08:35.032Z,4.20
2018-03-29T21:11:03.406Z,4.10
2018-03-29T21:13:31.055Z,4.10
2018-03-29T21:15:58.571Z,4.10
2018-03-29T21:18:26.154Z,4.00
2018-03-29T21:20:53.859Z,4.00
2018-03-29T21:23:21.556Z,4.00
2018-03-29T21:25:49.388Z,3.90
2018-03-29T21:28:17.807Z,3.80
2018-03-29T21:30:45.373Z,3.80
2018-03-29T21:33:12.836Z,3.80
2018-03-29T21:35:40.323Z,3.90
2018-03-29T21:38:07.780Z,4.00
2018-03-29T21:40:35.235Z,4.00
2018-03-29T21:43:02.708Z,4.00
2018-03-29T21:45:30.149Z,4.00
2018-03-29T21:47:57.692Z,4.00
2018-03-29T21:50:25.170Z,4.00
2018-03-29T21:52:52.672Z,4.00
2018-03-29T21:55:20.900Z,4.00
2018-03-29T21:57:48.366Z,4.00
2018-03-29T22:00:15.833Z,4.00
2018-03-29T22:02:43.306Z,4.00
2018-03-29T22:05:10.788Z,4.00
2018-03-29T22:07:38.247Z,4.00
2018-03-29T22:10:05.743Z,3.90
2018-03-29T22:12:33.234Z,3.90
2018-03-29T22:15:00.683Z,3.80
2018-03-29T22:17:28.156Z,3.70
2018-03-29T22:19:55.801Z,3.70
2018-03-29T22:22:23.249Z,3.60
2018-03-29T22:24:50.736Z,3.60
2018-03-29T22:27:18.188Z,3.50
2018-03-29T22:29:45.664Z,3.50
2018-03-29T22:32:13.109Z,3.40
2018-03-29T22:34:41.352Z,3.50
2018-03-29T22:37:08.823Z,3.40
2018-03-29T22:39:36.302Z,3.40
2018-03-29T22:42:03.750Z,3.40
2018-03-29T22:44:31.232Z,3.30
2018-03-29T22:46:58.703Z,3.30
2018-03-29T22:49:26.188Z,3.30
2018-03-29T22:51:53.657Z,3.30
2018-03-29T22:54:21.134Z,3.30
2018-03-29T22:56:48.633Z,3.40
2018-03-29T22:59:16.118Z,3.40
2018-03-29T23:01:43.578Z,3.40
2018-03-29T23:04:11.078Z,3.40
2018-03-29T23:06:38.527Z,3.50
2018-03-29T23:09:06.013Z,3.50
2018-03-29T23:11:33.485Z,3.60
2018-03-29T23:14:00.968Z,3.60
2018-03-29T23:16:28.428Z,3.60
2018-03-29T23:18:55.897Z,3.60
2018-03-29T23:21:23.353Z,3.60
2018-03-29T23:23:50.865Z,3.60
2018-03-29T23:26:18.345Z,3.60
2018-03-29T23:28:45.800Z,3.60
2018-03-29T23:31:13.268Z,3.60
2018-03-29T23:33:41.482Z,3.60
2018-03-29T23:36:08.968Z,3.60
2018-03-29T23:38:37.181Z,3.60
2018-03-29T23:41:05.416Z,3.60
2018-03-29T23:43:32.894Z,3.50
2018-03-29T23:46:00.343Z,3.50
2018-03-29T23:48:27.849Z,3.50
2018-03-29T23:50:56.082Z,3.40
2018-03-29T23:53:23.517Z,3.40
2018-03-29T23:55:50.996Z,3.30
2018-03-29T23:58:18.473Z,3.30
